createdAt,value
2019-01-02T00:02:15.017Z,4.10
2019-01-02T00:04:46.795Z,4.10
2019-01-02T00:07:18.522Z,4.10
2019-01-02T00:09:51.326Z,4.10
2019-01-02T00:12:23.074Z,4.10
2019-01-02T00:14:56.185Z,4.20
2019-01-02T00:17:31.282Z,4.20
2019-01-02T00:20:02.958Z,4.20
2019-01-02T00:22:34.612Z,4.20
2019-01-02T00:25:06.462Z,4.20
2019-01-02T00:27:38.128Z,4.20
2019-01-02T00:30:10.002Z,4.20
2019-01-02T00:32:43.522Z,4.20
2019-01-02T00:35:14.868Z,4.20
2019-01-02T00:37:47.425Z,4.20
2019-01-02T00:40:20.218Z,4.20
2019-01-02T00:42:51.804Z,4.30
2019-01-02T00:45:23.362Z,4.30
2019-01-02T00:47:55.521Z,4.30
2019-01-02T00:50:26.904Z,4.30
2019-01-02T00:52:58.511Z,4.40
2019-01-02T00:55:30.241Z,4.40
2019-01-02T00:58:01.465Z,4.40
2019-01-02T01:00:33.166Z,4.50
2019-01-02T01:03:04.461Z,4.50
2019-01-02T01:05:41.142Z,4.50
2019-01-02T01:08:12.526Z,4.50
2019-01-02T01:10:45.155Z,4.60
2019-01-02T01:13:16.516Z,4.60
2019-01-02T01:15:47.981Z,4.60
2019-01-02T01:18:19.320Z,4.60
2019-01-02T01:20:51.010Z,4.60
2019-01-02T01:23:22.281Z,4.60
2019-01-02T01:25:53.504Z,4.60
2019-01-02T01:28:24.762Z,4.60
2019-01-02T01:30:56.503Z,4.50
2019-01-02T01:33:28.055Z,4.50
2019-01-02T01:35:59.509Z,4.40
2019-01-02T01:38:30.962Z,4.40
2019-01-02T01:41:02.541Z,4.40
2019-01-02T01:43:33.912Z,4.40
2019-01-02T01:46:05.178Z,4.30
2019-01-02T01:48:36.792Z,4.40
2019-01-02T01:51:08.077Z,4.40
2019-01-02T01:53:39.410Z,4.30
2019-01-02T01:56:11.080Z,4.30
2019-01-02T01:58:42.308Z,4.30
2019-01-02T02:01:13.618Z,4.40
2019-01-02T02:03:44.851Z,4.40
2019-01-02T02:06:16.126Z,4.40
2019-01-02T02:08:47.550Z,4.40
2019-01-02T02:11:18.934Z,4.40
2019-01-02T02:13:51.009Z,4.40
2019-01-02T02:16:22.516Z,4.40
2019-01-02T02:18:53.829Z,4.40
2019-01-02T02:21:25.078Z,4.50
2019-01-02T02:23:56.712Z,4.50
2019-01-02T02:26:28.049Z,4.50
2019-01-02T02:28:59.706Z,4.50
2019-01-02T02:31:31.078Z,4.50
2019-01-02T02:34:02.617Z,4.50
2019-01-02T02:36:34.360Z,4.50
2019-01-02T02:39:08.090Z,4.50
2019-01-02T02:41:39.789Z,4.50
2019-01-02T02:44:11.382Z,4.40
2019-01-02T02:46:42.971Z,4.40
2019-01-02T02:49:14.352Z,4.40
2019-01-02T02:51:45.593Z,4.40
2019-01-02T02:54:17.192Z,4.40
2019-01-02T02:56:48.848Z,4.40
2019-01-02T02:59:20.384Z,4.40
2019-01-02T03:01:52.001Z,4.40
2019-01-02T03:04:23.557Z,4.40
2019-01-02T03:06:55.417Z,4.40
2019-01-02T03:09:26.947Z,4.30
2019-01-02T03:11:58.233Z,4.30
2019-01-02T03:14:31.837Z,4.30
2019-01-02T03:17:04.799Z,4.20
2019-01-02T03:19:36.743Z,4.20
2019-01-02T03:22:08.338Z,4.10
2019-01-02T03:24:40.003Z,4.10
2019-01-02T03:27:11.453Z,4.00
2019-01-02T03:29:42.832Z,3.90
2019-01-02T03:32:14.092Z,3.90
2019-01-02T03:34:45.643Z,3.90
2019-01-02T03:37:21.390Z,3.90
2019-01-02T03:39:52.688Z,3.90
2019-01-02T03:42:23.998Z,3.90
2019-01-02T03:44:55.233Z,3.80
2019-01-02T03:47:26.424Z,3.80
2019-01-02T03:49:57.924Z,3.80
2019-01-02T03:52:29.143Z,3.80
2019-01-02T03:55:00.325Z,3.80
2019-01-02T03:57:31.804Z,3.80
2019-01-02T04:00:03.162Z,3.90
2019-01-02T04:02:34.707Z,3.90
2019-01-02T04:05:07.453Z,3.90
2019-01-02T04:07:39.050Z,3.90
2019-01-02T04:10:12.506Z,3.90
2019-01-02T04:12:44.870Z,3.90
2019-01-02T04:15:16.780Z,3.90
2019-01-02T04:17:48.165Z,3.90
2019-01-02T04:20:19.609Z,3.90
2019-01-02T04:22:50.881Z,3.90
2019-01-02T04:25:22.087Z,3.90
2019-01-02T04:27:53.361Z,3.90
2019-01-02T04:30:24.537Z,3.80
2019-01-02T04:32:56.050Z,3.90
2019-01-02T04:35:27.268Z,3.80
2019-01-02T04:37:58.546Z,3.80
2019-01-02T04:40:29.857Z,3.90
2019-01-02T04:43:01.121Z,3.90
2019-01-02T04:45:32.385Z,3.80
2019-01-02T04:48:03.568Z,3.90
2019-01-02T04:50:34.836Z,3.80
2019-01-02T04:53:06.146Z,3.80
2019-01-02T04:55:37.577Z,3.80
2019-01-02T04:58:08.855Z,3.80
2019-01-02T05:00:40.273Z,3.80
2019-01-02T05:03:11.552Z,3.80
2019-01-02T05:05:42.888Z,3.80
2019-01-02T05:08:14.398Z,3.80
2019-01-02T05:10:47.275Z,3.80
2019-01-02T05:13:18.546Z,3.80
2019-01-02T05:15:49.701Z,3.80
2019-01-02T05:18:20.909Z,3.80
2019-01-02T05:20:52.289Z,3.80
2019-01-02T05:23:23.488Z,3.80
2019-01-02T05:25:55.475Z,3.80
2019-01-02T05:28:28.276Z,3.80
2019-01-02T05:30:59.658Z,3.70
2019-01-02T05:33:30.873Z,3.70
2019-01-02T05:36:02.239Z,3.70
2019-01-02T05:38:33.593Z,3.60
2019-01-02T05:41:05.061Z,3.60
2019-01-02T05:43:36.267Z,3.60
2019-01-02T05:46:07.471Z,3.60
2019-01-02T05:48:39.324Z,3.60
2019-01-02T05:51:10.586Z,3.60
2019-01-02T05:53:41.872Z,3.60
2019-01-02T05:56:15.880Z,3.60
2019-01-02T05:58:47.157Z,3.60
2019-01-02T06:01:18.422Z,3.60
2019-01-02T06:03:49.913Z,3.60
2019-01-02T06:06:21.186Z,3.60
2019-01-02T06:08:52.464Z,3.60
2019-01-02T06:11:27.925Z,3.60
2019-01-02T06:13:59.321Z,3.50
2019-01-02T06:16:31.976Z,3.50
2019-01-02T06:19:03.258Z,3.50
2019-01-02T06:21:34.528Z,3.50
2019-01-02T06:24:07.742Z,3.40
2019-01-02T06:26:39.052Z,3.40
2019-01-02T06:29:10.494Z,3.40
2019-01-02T06:31:41.661Z,3.30
2019-01-02T06:34:12.921Z,3.20
2019-01-02T06:36:44.100Z,3.20
2019-01-02T06:39:15.498Z,3.20
2019-01-02T06:41:46.730Z,3.10
2019-01-02T06:44:18.013Z,3.10
2019-01-02T06:46:49.836Z,3.10
2019-01-02T06:49:21.130Z,3.10
2019-01-02T06:51:52.495Z,3.10
2019-01-02T06:54:23.931Z,3.10
2019-01-02T06:56:55.250Z,3.00
2019-01-02T06:59:26.648Z,3.00
2019-01-02T07:01:58.016Z,3.00
2019-01-02T07:04:29.406Z,3.00
2019-01-02T07:07:00.653Z,3.00
2019-01-02T07:09:31.966Z,3.00
2019-01-02T07:12:03.395Z,3.00
2019-01-02T07:14:35.216Z,3.00
2019-01-02T07:17:06.479Z,3.00
2019-01-02T07:19:37.933Z,3.00
2019-01-02T07:22:09.179Z,3.00
2019-01-02T07:24:40.493Z,3.00
2019-01-02T07:27:11.820Z,3.00
2019-01-02T07:29:43.008Z,3.00
2019-01-02T07:32:14.192Z,3.00
2019-01-02T07:35:20.998Z,3.00
2019-01-02T07:38:25.693Z,3.00
2019-01-02T07:41:40.509Z,3.00
2019-01-02T07:44:41.572Z,3.00
2019-01-02T07:47:53.634Z,3.10
2019-01-02T07:51:07.159Z,3.00
2019-01-02T07:54:20.687Z,3.00
2019-01-02T07:57:35.930Z,3.10
2019-01-02T08:00:37.649Z,3.00
2019-01-02T08:03:35.742Z,3.00
2019-01-02T08:07:01.695Z,3.00
2019-01-02T08:09:57.718Z,3.00
2019-01-02T08:12:57.974Z,3.00
2019-01-02T08:16:07.276Z,3.00
2019-01-02T08:19:10.973Z,3.00
2019-01-02T08:22:19.355Z,3.10
2019-01-02T08:25:21.434Z,3.10
2019-01-02T08:28:20.528Z,3.10
2019-01-02T08:31:17.762Z,3.20
2019-01-02T08:34:31.746Z,3.20
2019-01-02T08:37:52.998Z,3.20
2019-01-02T08:41:15.232Z,3.30
2019-01-02T08:44:36.344Z,3.30
2019-01-02T08:47:34.565Z,3.30
2019-01-02T08:50:25.091Z,3.30
2019-01-02T08:53:37.307Z,3.30
2019-01-02T08:56:53.191Z,3.20
2019-01-02T09:00:11.947Z,3.30
2019-01-02T09:03:18.622Z,3.20
2019-01-02T09:06:34.641Z,3.30
2019-01-02T09:09:45.235Z,3.30
2019-01-02T09:12:49.834Z,3.30
2019-01-02T09:16:09.949Z,3.30
2019-01-02T09:19:01.446Z,3.20
2019-01-02T09:22:06.324Z,3.20
2019-01-02T09:25:09.487Z,3.30
2019-01-02T09:28:10.942Z,3.30
2019-01-02T09:34:33.711Z,3.30
2019-01-02T09:38:06.588Z,3.30
2019-01-02T09:41:03.246Z,3.30
2019-01-02T09:44:14.122Z,3.30
2019-01-02T09:47:25.352Z,3.30
2019-01-02T09:50:42.157Z,3.30
2019-01-02T09:53:26.116Z,3.30
2019-01-02T09:56:49.280Z,3.40
2019-01-02T10:00:02.875Z,3.40
2019-01-02T10:03:34.321Z,3.40
2019-01-02T10:06:45.466Z,3.40
2019-01-02T10:15:53.740Z,3.30
2019-01-02T10:19:11.871Z,3.30
2019-01-02T10:22:36.216Z,3.30
2019-01-02T10:25:49.202Z,3.20
2019-01-02T10:28:56.549Z,3.20
2019-01-02T10:32:13.249Z,3.20
2019-01-02T10:35:40.033Z,3.20
2019-01-02T10:38:51.171Z,3.30
2019-01-02T10:42:07.350Z,3.30
2019-01-02T10:45:30.877Z,3.30
2019-01-02T10:48:15.706Z,3.30
2019-01-02T10:51:32.148Z,3.40
2019-01-02T10:54:38.696Z,3.40
2019-01-02T10:57:48.395Z,3.40
2019-01-02T11:00:56.557Z,3.40
2019-01-02T11:04:08.996Z,3.30
2019-01-02T11:07:30.364Z,3.20
2019-01-02T11:10:29.944Z,3.30
2019-01-02T11:13:41.309Z,3.30
2019-01-02T11:16:48.970Z,3.30
2019-01-02T11:19:56.993Z,3.40
2019-01-02T11:23:14.691Z,3.40
2019-01-02T11:26:20.519Z,3.50
2019-01-02T11:29:35.066Z,3.40
2019-01-02T11:32:36.566Z,3.40
2019-01-02T11:35:44.064Z,3.30
2019-01-02T11:38:50.367Z,3.30
2019-01-02T11:41:32.871Z,3.30
2019-01-02T11:45:03.206Z,3.20
2019-01-02T11:47:34.655Z,3.20
2019-01-02T11:50:08.417Z,3.20
2019-01-02T11:52:40.960Z,3.20
2019-01-02T11:55:12.881Z,3.20
2019-01-02T11:57:44.135Z,3.20
2019-01-02T12:00:16.520Z,3.20
2019-01-02T12:02:48.202Z,3.20
2019-01-02T12:05:19.464Z,3.20
2019-01-02T12:07:50.743Z,3.10
2019-01-02T12:10:22.197Z,3.10
2019-01-02T12:12:53.591Z,3.00
2019-01-02T12:15:24.870Z,3.00
2019-01-02T12:17:56.405Z,3.00
2019-01-02T12:20:27.695Z,3.00
2019-01-02T12:23:03.458Z,3.00
2019-01-02T12:25:38.618Z,2.90
2019-01-02T12:28:09.797Z,2.90
2019-01-02T12:30:41.078Z,2.80
2019-01-02T12:33:12.354Z,2.90
2019-01-02T12:35:44.966Z,2.80
2019-01-02T12:38:16.143Z,2.80
2019-01-02T12:40:47.515Z,2.80
2019-01-02T12:43:18.909Z,2.80
2019-01-02T12:45:50.429Z,2.80
2019-01-02T12:48:21.742Z,2.80
2019-01-02T12:50:53.631Z,2.80
2019-01-02T12:53:25.135Z,2.80
2019-01-02T12:55:56.465Z,2.80
2019-01-02T12:58:27.834Z,2.80
2019-01-02T13:01:05.429Z,2.70
2019-01-02T13:04:13.637Z,2.70
2019-01-02T13:07:32.037Z,2.70
2019-01-02T13:10:25.526Z,2.60
2019-01-02T13:13:41.068Z,2.60
2019-01-02T13:16:37.665Z,2.50
2019-01-02T13:20:01.600Z,2.50
2019-01-02T13:23:16.348Z,2.50
2019-01-02T13:25:53.453Z,2.50
2019-01-02T13:28:47.197Z,2.50
2019-01-02T13:32:14.640Z,2.40
2019-01-02T13:35:36.089Z,2.40
2019-01-02T13:38:37.460Z,2.50
2019-01-02T13:41:32.066Z,2.50
2019-01-02T13:44:34.449Z,2.50
2019-01-02T13:47:56.578Z,2.50
2019-01-02T13:50:56.249Z,2.50
2019-01-02T13:53:27.527Z,2.50
2019-01-02T13:55:58.839Z,2.40
2019-01-02T13:58:30.873Z,2.30
2019-01-02T14:01:02.221Z,2.30
2019-01-02T14:03:33.473Z,2.20
2019-01-02T14:06:04.847Z,2.20
2019-01-02T14:08:36.350Z,2.10
2019-01-02T14:11:07.659Z,2.10
2019-01-02T14:13:39.016Z,2.10
2019-01-02T14:16:10.413Z,2.10
2019-01-02T14:18:41.597Z,2.10
2019-01-02T14:21:12.883Z,2.00
2019-01-02T14:23:44.177Z,2.10
2019-01-02T14:26:15.703Z,2.00
2019-01-02T14:28:46.991Z,2.00
2019-01-02T14:31:19.673Z,2.10
2019-01-02T14:33:51.037Z,2.00
2019-01-02T14:36:22.808Z,2.00
2019-01-02T14:38:57.372Z,2.00
2019-01-02T14:41:33.872Z,2.00
2019-01-02T14:44:12.356Z,2.00
2019-01-02T14:46:43.898Z,2.00
2019-01-02T14:49:15.609Z,1.90
2019-01-02T14:51:49.138Z,1.90
2019-01-02T14:54:20.415Z,1.90
2019-01-02T14:56:52.434Z,1.90
2019-01-02T14:59:24.663Z,1.90
2019-01-02T15:01:59.383Z,1.80
2019-01-02T15:04:31.075Z,1.80
2019-01-02T15:07:02.706Z,1.80
2019-01-02T15:09:34.919Z,1.80
2019-01-02T15:12:06.655Z,1.80
2019-01-02T15:14:37.957Z,1.70
2019-01-02T15:17:09.364Z,1.70
2019-01-02T15:19:42.774Z,1.60
2019-01-02T15:22:14.142Z,1.70
2019-01-02T15:24:49.434Z,1.60
2019-01-02T15:27:18.552Z,1.70
2019-01-02T15:29:50.152Z,1.60
2019-01-02T15:32:21.566Z,1.60
2019-01-02T15:34:52.929Z,1.60
2019-01-02T15:37:24.305Z,1.60
2019-01-02T15:39:55.719Z,1.60
2019-01-02T15:42:27.133Z,1.50
2019-01-02T15:44:58.633Z,1.50
2019-01-02T15:47:30.171Z,1.50
2019-01-02T15:50:01.573Z,1.50
2019-01-02T15:52:33.178Z,1.50
2019-01-02T15:55:04.590Z,1.50
2019-01-02T15:57:36.126Z,1.50
2019-01-02T16:00:09.641Z,1.50
2019-01-02T16:02:42.838Z,1.50
2019-01-02T16:05:14.703Z,1.50
2019-01-02T16:07:48.907Z,1.50
2019-01-02T16:11:17.882Z,1.60
2019-01-02T16:13:49.217Z,1.50
2019-01-02T16:16:20.513Z,1.50
2019-01-02T16:19:07.460Z,1.50
2019-01-02T16:21:38.966Z,1.50
2019-01-02T16:24:10.607Z,1.50
2019-01-02T16:26:41.949Z,1.50
2019-01-02T16:29:13.133Z,1.40
2019-01-02T16:31:44.380Z,1.40
2019-01-02T16:34:16.349Z,1.50
2019-01-02T16:36:47.874Z,1.50
2019-01-02T16:39:19.832Z,1.40
2019-01-02T16:41:51.231Z,1.40
2019-01-02T16:44:22.658Z,1.40
2019-01-02T16:46:53.945Z,1.40
2019-01-02T16:49:25.233Z,1.40
2019-01-02T16:51:56.583Z,1.40
2019-01-02T16:54:27.843Z,1.30
2019-01-02T16:56:59.167Z,1.30
2019-01-02T16:59:31.059Z,1.30
2019-01-02T17:02:02.389Z,1.30
2019-01-02T17:04:33.773Z,1.30
2019-01-02T17:07:05.101Z,1.30
2019-01-02T17:09:36.806Z,1.30
2019-01-02T17:12:08.108Z,1.30
2019-01-02T17:14:39.456Z,1.30
2019-01-02T17:17:11.150Z,1.30
2019-01-02T17:19:44.584Z,1.30
2019-01-02T17:22:15.918Z,1.30
2019-01-02T17:24:47.234Z,1.20
2019-01-02T17:27:18.485Z,1.30
2019-01-02T17:29:49.904Z,1.30
2019-01-02T17:32:21.253Z,1.30
2019-01-02T17:34:52.461Z,1.20
2019-01-02T17:37:23.742Z,1.30
2019-01-02T17:39:55.128Z,1.20
2019-01-02T17:42:26.487Z,1.20
2019-01-02T17:44:58.013Z,1.30
2019-01-02T17:47:29.333Z,1.30
2019-01-02T17:50:00.573Z,1.30
2019-01-02T17:52:32.183Z,1.20
2019-01-02T17:55:03.568Z,1.20
2019-01-02T17:57:34.823Z,1.20
2019-01-02T18:00:08.812Z,1.20
2019-01-02T18:02:40.824Z,1.30
2019-01-02T18:05:12.368Z,1.30
2019-01-02T18:07:43.622Z,1.20
2019-01-02T18:10:15.323Z,1.20
2019-01-02T18:12:46.661Z,1.20
2019-01-02T18:15:18.136Z,1.40
2019-01-02T18:17:50.924Z,1.10
2019-01-02T18:20:22.205Z,1.10
2019-01-02T18:22:53.578Z,1.00
2019-01-02T18:25:24.858Z,1.00
2019-01-02T18:27:56.228Z,1.00
2019-01-02T18:30:27.605Z,1.10
2019-01-02T18:32:59.086Z,1.00
2019-01-02T18:35:32.299Z,1.10
2019-01-02T18:38:03.539Z,1.00
2019-01-02T18:40:34.819Z,1.00
2019-01-02T18:43:06.108Z,1.00
2019-01-02T18:45:37.495Z,1.00
2019-01-02T18:48:08.963Z,1.00
2019-01-02T18:50:40.789Z,1.00
2019-01-02T18:53:13.583Z,1.10
2019-01-02T18:55:45.073Z,1.10
2019-01-02T18:58:16.408Z,1.10
2019-01-02T19:00:47.793Z,1.10
2019-01-02T19:03:20.865Z,1.10
2019-01-02T19:05:52.944Z,1.10
2019-01-02T19:08:24.241Z,1.10
2019-01-02T19:10:55.528Z,1.10
2019-01-02T19:13:29.519Z,1.10
2019-01-02T19:16:00.813Z,1.00
2019-01-02T19:18:32.494Z,1.00
2019-01-02T19:21:03.757Z,1.00
2019-01-02T19:23:35.071Z,1.00
2019-01-02T19:26:06.774Z,1.00
2019-01-02T19:28:38.638Z,0.90
2019-01-02T19:31:09.917Z,0.90
2019-01-02T19:33:41.355Z,0.90
2019-01-02T19:36:12.782Z,0.90
2019-01-02T19:38:44.960Z,0.90
2019-01-02T19:41:16.533Z,0.90
2019-01-02T19:43:47.964Z,0.90
2019-01-02T19:46:19.395Z,1.00
2019-01-02T19:48:50.816Z,1.10
2019-01-02T19:51:22.207Z,1.20
2019-01-02T19:53:53.557Z,1.40
2019-01-02T19:56:24.758Z,1.50
2019-01-02T19:58:56.100Z,1.70
2019-01-02T20:01:27.388Z,1.90
2019-01-02T20:03:58.647Z,2.00
2019-01-02T20:06:30.285Z,2.10
2019-01-02T20:09:03.637Z,2.30
2019-01-02T20:11:34.854Z,2.40
2019-01-02T20:14:06.159Z,2.40
2019-01-02T20:16:37.609Z,2.50
2019-01-02T20:19:09.170Z,2.60
2019-01-02T20:21:40.559Z,2.70
2019-01-02T20:24:11.857Z,2.70
2019-01-02T20:26:43.202Z,2.80
2019-01-02T20:29:14.617Z,2.90
2019-01-02T20:31:46.087Z,2.90
2019-01-02T20:34:17.499Z,3.00
2019-01-02T20:36:48.817Z,3.00
2019-01-02T20:39:20.128Z,3.00
2019-01-02T20:41:51.580Z,3.00
2019-01-02T20:44:22.915Z,3.00
2019-01-02T20:46:54.422Z,3.00
2019-01-02T20:49:25.680Z,2.90
2019-01-02T20:51:56.969Z,2.90
2019-01-02T20:54:28.287Z,2.90
2019-01-02T20:56:59.729Z,2.90
2019-01-02T20:59:30.996Z,2.80
2019-01-02T21:02:02.443Z,2.80
2019-01-02T21:04:33.776Z,2.80
2019-01-02T21:07:05.042Z,2.80
2019-01-02T21:09:37.319Z,2.80
2019-01-02T21:12:08.786Z,2.80
2019-01-02T21:14:40.447Z,2.80
2019-01-02T21:17:13.522Z,2.70
2019-01-02T21:19:44.820Z,2.70
2019-01-02T21:22:16.127Z,2.60
2019-01-02T21:24:48.341Z,2.60
2019-01-02T21:27:19.737Z,2.60
2019-01-02T21:29:50.980Z,2.60
2019-01-02T21:32:22.278Z,2.50
2019-01-02T21:34:53.552Z,2.50
2019-01-02T21:37:24.753Z,2.50
2019-01-02T21:40:01.036Z,2.50
2019-01-02T21:42:32.512Z,2.50
2019-01-02T21:45:04.067Z,2.50
2019-01-02T21:47:36.477Z,2.40
2019-01-02T21:50:08.311Z,2.40
2019-01-02T21:52:41.243Z,2.40
2019-01-02T21:55:20.145Z,2.40
2019-01-02T21:57:51.518Z,2.40
2019-01-02T22:00:22.936Z,2.40
2019-01-02T22:02:54.408Z,2.40
2019-01-02T22:05:25.785Z,2.40
2019-01-02T22:07:57.041Z,2.40
2019-01-02T22:10:28.281Z,2.40
2019-01-02T22:12:59.486Z,2.40
2019-01-02T22:15:30.697Z,2.40
2019-01-02T22:18:03.341Z,2.30
2019-01-02T22:20:44.629Z,2.30
2019-01-02T22:23:16.826Z,2.30
2019-01-02T22:25:51.262Z,2.30
2019-01-02T22:28:22.682Z,2.30
2019-01-02T22:30:54.128Z,2.30
2019-01-02T22:33:27.859Z,2.20
2019-01-02T22:36:01.317Z,2.20
2019-01-02T22:38:32.692Z,2.20
2019-01-02T22:41:03.852Z,2.10
2019-01-02T22:43:35.462Z,2.10
2019-01-02T22:46:06.730Z,2.10
2019-01-02T22:48:38.346Z,2.10
2019-01-02T22:51:09.597Z,2.10
2019-01-02T22:53:40.974Z,2.10
2019-01-02T22:56:12.277Z,2.00
2019-01-02T22:58:43.926Z,2.00
2019-01-02T23:01:22.695Z,2.00
2019-01-02T23:04:11.740Z,1.90
2019-01-02T23:07:00.588Z,1.90
2019-01-02T23:09:49.673Z,1.90
2019-01-02T23:12:38.633Z,1.90
2019-01-02T23:15:37.914Z,1.90
2019-01-02T23:18:34.496Z,1.90
2019-01-02T23:21:37.443Z,1.90
2019-01-02T23:24:22.952Z,1.90
2019-01-02T23:27:15.278Z,1.90
2019-01-02T23:30:04.605Z,1.90
2019-01-02T23:33:08.524Z,1.90
2019-01-02T23:35:49.838Z,1.80
2019-01-02T23:38:38.816Z,1.80
2019-01-02T23:41:32.005Z,1.70
2019-01-02T23:44:20.611Z,1.70
2019-01-02T23:47:26.001Z,1.60
2019-01-02T23:50:21.493Z,1.60
2019-01-02T23:53:10.280Z,1.50
2019-01-02T23:56:09.462Z,1.40
2019-01-02T23:59:05.553Z,1.40
